createdAt,value
2019-04-06T00:01:51.469Z,100489.86
2019-04-06T00:04:21.879Z,100500.73
2019-04-06T00:06:52.067Z,100522.87
2019-04-06T00:09:22.275Z,100524.98
2019-04-06T00:11:54.189Z,100525.45
2019-04-06T00:14:24.469Z,100534.51
2019-04-06T00:16:54.744Z,100527.88
2019-04-06T00:19:24.942Z,100528.31
2019-04-06T00:21:55.391Z,100528.75
2019-04-06T00:24:25.900Z,100526.14
2019-04-06T00:26:56.349Z,100529.69
2019-04-06T00:29:27.557Z,100525.37
2019-04-06T00:32:05.424Z,100528.86
2019-04-06T00:34:35.946Z,100524.94
2019-04-06T00:37:06.190Z,100526.25
2019-04-06T00:39:36.531Z,100527.65
2019-04-06T00:42:06.898Z,100540.59
2019-04-06T00:44:37.091Z,100547.02
2019-04-06T00:47:07.351Z,100542.13
2019-04-06T00:49:37.784Z,100539.02
2019-04-06T00:52:08.065Z,100542.93
2019-04-06T00:54:38.255Z,100546.01
2019-04-06T00:57:08.627Z,100549.02
2019-04-06T00:59:38.765Z,100545.11
2019-04-06T01:02:09.567Z,100548.91
2019-04-06T01:04:39.674Z,100552.36
2019-04-06T01:07:09.836Z,100545.03
2019-04-06T01:09:40.073Z,100548.11
2019-04-06T01:12:10.295Z,100542.93
2019-04-06T01:14:40.657Z,100549.55
2019-04-06T01:17:11.228Z,100548.35
2019-04-06T01:19:41.782Z,100551.96
2019-04-06T01:22:12.095Z,100549.92
2019-04-06T01:24:42.518Z,100551.30
2019-04-06T01:27:13.260Z,100550.49
2019-04-06T01:29:43.517Z,100549.66
2019-04-06T01:32:13.869Z,100554.06
2019-04-06T01:34:44.930Z,100554.91
2019-04-06T01:37:15.201Z,100550.52
2019-04-06T01:39:46.841Z,100548.31
2019-04-06T01:42:17.457Z,100551.39
2019-04-06T01:44:47.963Z,100553.20
2019-04-06T01:47:18.253Z,100551.52
2019-04-06T01:49:48.745Z,100555.00
2019-04-06T01:52:19.092Z,100557.17
2019-04-06T01:54:49.920Z,100548.88
2019-04-06T01:57:20.806Z,100550.99
2019-04-06T01:59:51.208Z,100556.80
2019-04-06T02:02:32.974Z,100556.00
2019-04-06T02:05:04.484Z,100554.70
2019-04-06T02:07:34.926Z,100557.73
2019-04-06T02:10:05.349Z,100557.30
2019-04-06T02:12:35.813Z,100562.86
2019-04-06T02:15:06.484Z,100558.41
2019-04-06T02:17:37.011Z,100555.80
2019-04-06T02:20:07.507Z,100560.59
2019-04-06T02:22:39.084Z,100558.87
2019-04-06T02:25:09.214Z,100561.48
2019-04-06T02:27:39.755Z,100564.03
2019-04-06T02:30:29.546Z,100570.12
2019-04-06T02:33:19.362Z,100567.04
2019-04-06T02:35:59.350Z,100565.67
2019-04-06T02:38:39.463Z,100563.93
2019-04-06T02:41:29.713Z,100567.44
2019-04-06T02:44:00.113Z,100573.16
2019-04-06T02:46:31.336Z,100574.96
2019-04-06T02:49:01.857Z,100572.42
2019-04-06T02:51:32.142Z,100576.33
2019-04-06T02:54:02.998Z,100573.78
2019-04-06T02:56:45.547Z,100576.45
2019-04-06T02:59:06.842Z,100579.06
2019-04-06T03:01:37.362Z,100578.23
2019-04-06T03:04:07.918Z,100577.42
2019-04-06T03:06:38.284Z,100574.41
2019-04-06T03:09:11.464Z,100576.18
2019-04-06T03:11:41.200Z,100577.02
2019-04-06T03:14:11.576Z,100577.45
2019-04-06T03:16:41.779Z,100583.94
2019-04-06T03:19:12.138Z,100582.58
2019-04-06T03:21:42.615Z,100582.54
2019-04-06T03:24:13.367Z,100584.31
2019-04-06T03:26:43.704Z,100581.23
2019-04-06T03:29:13.803Z,100583.81
2019-04-06T03:31:43.901Z,100585.95
2019-04-06T03:34:20.030Z,100592.34
2019-04-06T03:36:46.731Z,100594.89
2019-04-06T03:39:16.963Z,100596.17
2019-04-06T03:41:47.318Z,100597.44
2019-04-06T03:44:17.825Z,100592.66
2019-04-06T03:46:48.325Z,100601.72
2019-04-06T03:49:18.598Z,100603.02
2019-04-06T03:51:48.971Z,100604.77
2019-04-06T03:54:19.714Z,100599.14
2019-04-06T03:56:49.942Z,100600.02
2019-04-06T03:59:21.368Z,100603.99
2019-04-06T04:01:51.661Z,100607.53
2019-04-06T04:04:22.241Z,100612.78
2019-04-06T04:06:52.553Z,100612.78
2019-04-06T04:09:23.812Z,100605.42
2019-04-06T04:11:56.319Z,100612.00
2019-04-06T04:14:26.769Z,100611.59
2019-04-06T04:16:57.210Z,100615.58
2019-04-06T04:19:27.520Z,100612.09
2019-04-06T04:21:58.024Z,100617.72
2019-04-06T04:24:28.908Z,100621.19
2019-04-06T04:26:59.067Z,100617.72
2019-04-06T04:29:29.299Z,100623.33
2019-04-06T04:31:59.581Z,100622.92
2019-04-06T04:34:30.079Z,100625.53
2019-04-06T04:37:00.568Z,100624.64
2019-04-06T04:39:30.821Z,100626.34
2019-04-06T04:42:03.614Z,100626.72
2019-04-06T04:44:33.702Z,100628.00
2019-04-06T04:47:03.942Z,100634.45
2019-04-06T04:49:34.815Z,100635.38
2019-04-06T04:52:05.709Z,100636.72
2019-04-06T04:54:36.059Z,100637.95
2019-04-06T04:57:07.018Z,100636.22
2019-04-06T04:59:37.454Z,100641.78
2019-04-06T05:02:08.164Z,100641.81
2019-04-06T05:04:38.753Z,100638.70
2019-04-06T05:07:09.968Z,100639.61
2019-04-06T05:09:40.309Z,100638.27
2019-04-06T05:12:10.790Z,100643.83
2019-04-06T05:15:01.197Z,100637.74
2019-04-06T05:17:31.679Z,100635.94
2019-04-06T05:20:02.150Z,100638.02
2019-04-06T05:22:32.906Z,100642.27
2019-04-06T05:25:03.545Z,100642.08
2019-04-06T05:27:33.879Z,100651.05
2019-04-06T05:30:05.870Z,100648.25
2019-04-06T05:32:36.305Z,100645.11
2019-04-06T05:35:06.800Z,100647.68
2019-04-06T05:37:37.482Z,100643.30
2019-04-06T05:40:07.892Z,100649.36
2019-04-06T05:42:38.294Z,100647.11
2019-04-06T05:45:10.176Z,100647.95
2019-04-06T05:47:40.530Z,100648.72
2019-04-06T05:50:10.789Z,100645.14
2019-04-06T05:52:41.446Z,100649.82
2019-04-06T05:55:11.972Z,100657.09
2019-04-06T05:57:43.201Z,100651.77
2019-04-06T06:00:13.796Z,100655.94
2019-04-06T06:02:44.459Z,100654.06
2019-04-06T06:05:14.767Z,100658.27
2019-04-06T06:07:45.303Z,100661.21
2019-04-06T06:10:15.956Z,100662.01
2019-04-06T06:12:46.726Z,100662.81
2019-04-06T06:15:17.682Z,100660.89
2019-04-06T06:17:48.178Z,100659.44
2019-04-06T06:20:18.775Z,100659.69
2019-04-06T06:22:49.280Z,100654.23
2019-04-06T06:25:19.975Z,100662.66
2019-04-06T06:27:50.539Z,100662.42
2019-04-06T06:30:22.205Z,100657.23
2019-04-06T06:32:52.732Z,100655.38
2019-04-06T06:35:23.406Z,100660.45
2019-04-06T06:37:54.045Z,100662.39
2019-04-06T06:40:24.663Z,100654.40
2019-04-06T06:42:55.310Z,100652.45
2019-04-06T06:45:25.847Z,100656.30
2019-04-06T06:47:56.564Z,100651.86
2019-04-06T06:50:28.107Z,100651.86
2019-04-06T06:52:59.001Z,100655.91
2019-04-06T06:55:29.941Z,100653.69
2019-04-06T06:58:00.451Z,100654.35
2019-04-06T07:00:31.177Z,100657.08
2019-04-06T07:03:02.069Z,100648.89
2019-04-06T07:05:32.418Z,100656.34
2019-04-06T07:08:02.860Z,100653.13
2019-04-06T07:10:33.530Z,100651.36
2019-04-06T07:13:04.714Z,100656.51
2019-04-06T07:15:35.175Z,100660.34
2019-04-06T07:18:05.498Z,100659.95
2019-04-06T07:20:36.163Z,100652.98
2019-04-06T07:23:06.454Z,100660.67
2019-04-06T07:25:37.007Z,100659.91
2019-04-06T07:28:07.481Z,100664.16
2019-04-06T07:30:38.045Z,100658.67
2019-04-06T07:33:08.399Z,100659.66
2019-04-06T07:35:44.309Z,100657.80
2019-04-06T07:38:14.810Z,100663.84
2019-04-06T07:40:47.966Z,100658.45
2019-04-06T07:43:18.715Z,100662.55
2019-04-06T07:45:49.066Z,100657.75
2019-04-06T07:48:19.803Z,100648.97
2019-04-06T07:50:50.744Z,100648.52
2019-04-06T07:53:22.207Z,100654.40
2019-04-06T07:55:52.989Z,100650.83
2019-04-06T07:58:23.497Z,100650.07
2019-04-06T08:00:54.296Z,100652.33
2019-04-06T08:03:24.745Z,100650.41
2019-04-06T08:05:55.802Z,100646.52
2019-04-06T08:08:29.347Z,100653.67
2019-04-06T08:11:00.169Z,100646.76
2019-04-06T08:13:32.414Z,100649.83
2019-04-06T08:16:03.383Z,100650.35
2019-04-06T08:18:33.869Z,100652.18
2019-04-06T08:21:04.892Z,100651.63
2019-04-06T08:23:35.486Z,100651.47
2019-04-06T08:26:07.265Z,100650.71
2019-04-06T08:28:38.173Z,100648.09
2019-04-06T08:31:09.267Z,100646.82
2019-04-06T08:33:40.369Z,100643.77
2019-04-06T08:36:12.254Z,100646.31
2019-04-06T08:38:42.840Z,100640.18
2019-04-06T08:41:13.421Z,100639.68
2019-04-06T08:43:44.358Z,100636.55
2019-04-06T08:46:14.950Z,100641.27
2019-04-06T08:48:47.133Z,100646.16
2019-04-06T08:51:18.330Z,100645.38
2019-04-06T08:53:49.202Z,100640.02
2019-04-06T08:56:19.855Z,100639.64
2019-04-06T08:58:50.267Z,100637.47
2019-04-06T09:01:21.261Z,100642.21
2019-04-06T09:03:51.959Z,100635.25
2019-04-06T09:06:23.304Z,100633.11
2019-04-06T09:08:54.366Z,100631.14
2019-04-06T09:11:24.983Z,100629.44
2019-04-06T09:13:55.493Z,100634.70
2019-04-06T09:16:28.533Z,100632.78
2019-04-06T09:18:59.479Z,100632.30
2019-04-06T09:21:29.996Z,100627.52
2019-04-06T09:24:00.806Z,100630.64
2019-04-06T09:26:31.759Z,100629.55
2019-04-06T09:29:02.369Z,100632.99
2019-04-06T09:31:33.591Z,100626.94
2019-04-06T09:34:05.742Z,100627.92
2019-04-06T09:36:36.532Z,100630.50
2019-04-06T09:39:07.373Z,100626.00
2019-04-06T09:41:38.211Z,100626.72
2019-04-06T09:44:14.389Z,100627.86
2019-04-06T09:47:03.389Z,100629.25
2019-04-06T09:50:02.614Z,100616.83
2019-04-06T09:52:58.905Z,100616.44
2019-04-06T09:55:41.216Z,100618.94
2019-04-06T09:58:43.760Z,100612.81
2019-04-06T10:01:23.558Z,100604.73
2019-04-06T10:04:08.915Z,100602.82
2019-04-06T10:07:05.348Z,100601.61
2019-04-06T10:09:54.087Z,100598.78
2019-04-06T10:12:50.290Z,100596.41
2019-04-06T10:15:31.372Z,100603.11
2019-04-06T10:18:36.659Z,100603.28
2019-04-06T10:21:45.145Z,100597.09
2019-04-06T10:24:53.251Z,100600.60
2019-04-06T10:27:52.438Z,100594.95
2019-04-06T10:30:40.301Z,100603.70
2019-04-06T10:33:23.424Z,100601.05
2019-04-06T10:36:16.715Z,100595.12
2019-04-06T10:38:59.557Z,100598.30
2019-04-06T10:41:51.528Z,100596.57
2019-04-06T10:44:50.701Z,100597.23
2019-04-06T10:47:39.319Z,100593.17
2019-04-06T10:50:28.734Z,100596.09
2019-04-06T10:53:24.923Z,100594.08
2019-04-06T10:56:14.691Z,100598.44
2019-04-06T10:59:03.309Z,100591.33
2019-04-06T11:01:52.863Z,100594.95
2019-04-06T11:04:31.350Z,100591.98
2019-04-06T11:07:20.477Z,100592.66
2019-04-06T11:10:23.220Z,100589.96
2019-04-06T11:13:12.585Z,100582.91
2019-04-06T11:16:04.967Z,100583.25
2019-04-06T11:19:00.869Z,100581.67
2019-04-06T11:21:50.053Z,100576.10
2019-04-06T11:24:55.751Z,100583.55
2019-04-06T11:27:58.140Z,100580.68
2019-04-06T11:30:54.396Z,100574.08
2019-04-06T11:33:50.651Z,100568.47
2019-04-06T11:36:44.076Z,100562.30
2019-04-06T11:39:34.006Z,100562.75
2019-04-06T11:42:14.361Z,100561.02
2019-04-06T11:45:07.698Z,100559.95
2019-04-06T11:48:03.571Z,100559.11
2019-04-06T11:50:59.685Z,100557.66
2019-04-06T11:54:05.634Z,100560.30
2019-04-06T11:56:58.921Z,100558.97
2019-04-06T11:59:51.954Z,100552.25
2019-04-06T12:02:48.905Z,100549.48
2019-04-06T12:05:56.787Z,100555.98
2019-04-06T12:08:45.242Z,100564.67
2019-04-06T12:11:47.497Z,100561.88
2019-04-06T12:14:49.589Z,100564.84
2019-04-06T12:17:37.689Z,100575.77
2019-04-06T12:20:26.178Z,100562.40
2019-04-06T12:23:22.358Z,100569.38
2019-04-06T12:26:18.999Z,100566.30
2019-04-06T12:29:08.894Z,100573.84
2019-04-06T12:32:08.060Z,100565.58
2019-04-06T12:35:04.224Z,100577.27
2019-04-06T12:37:53.692Z,100572.28
2019-04-06T12:40:56.356Z,100569.04
2019-04-06T12:43:53.233Z,100573.77
2019-04-06T12:46:56.440Z,100571.01
2019-04-06T12:49:49.374Z,100565.66
2019-04-06T12:52:26.293Z,100562.75
2019-04-06T12:55:28.914Z,100572.92
2019-04-06T12:58:35.880Z,100572.16
2019-04-06T13:01:26.213Z,100580.88
2019-04-06T13:04:16.320Z,100572.45
2019-04-06T13:07:13.000Z,100563.76
2019-04-06T13:10:06.515Z,100569.52
2019-04-06T13:12:56.818Z,100565.89
2019-04-06T13:15:35.458Z,100556.56
2019-04-06T13:18:15.121Z,100566.52
2019-04-06T13:21:02.281Z,100575.59
2019-04-06T13:23:44.178Z,100568.41
2019-04-06T13:26:52.002Z,100566.63
2019-04-06T13:29:42.121Z,100564.95
2019-04-06T13:32:30.026Z,100567.67
2019-04-06T13:35:20.654Z,100559.37
2019-04-06T13:38:14.026Z,100565.54
2019-04-06T13:41:04.319Z,100555.53
2019-04-06T13:43:52.738Z,100557.51
2019-04-06T13:46:34.392Z,100555.78
2019-04-06T13:49:24.524Z,100554.94
2019-04-06T13:52:14.597Z,100561.17
2019-04-06T13:55:14.852Z,100552.97
2019-04-06T13:58:11.151Z,100556.86
2019-04-06T14:00:49.377Z,100544.38
2019-04-06T14:03:37.909Z,100548.08
2019-04-06T14:06:27.079Z,100540.52
2019-04-06T14:09:23.953Z,100542.00
2019-04-06T14:12:23.383Z,100540.59
2019-04-06T14:15:12.053Z,100538.77
2019-04-06T14:18:06.883Z,100533.19
2019-04-06T14:21:05.025Z,100538.42
2019-04-06T14:23:52.242Z,100531.09
2019-04-06T14:26:40.858Z,100533.26
2019-04-06T14:29:38.327Z,100533.14
2019-04-06T14:32:27.291Z,100533.94
2019-04-06T14:35:08.375Z,100520.32
2019-04-06T14:37:59.073Z,100534.31
2019-04-06T14:40:50.505Z,100525.27
2019-04-06T14:43:41.171Z,100524.13
2019-04-06T14:46:34.421Z,100521.35
2019-04-06T14:49:30.817Z,100520.71
2019-04-06T14:52:24.163Z,100517.79
2019-04-06T14:55:03.602Z,100515.00
2019-04-06T14:57:59.581Z,100511.78
2019-04-06T15:00:59.800Z,100516.27
2019-04-06T15:04:02.442Z,100512.19
2019-04-06T15:06:43.666Z,100511.80
2019-04-06T15:09:22.997Z,100511.64
2019-04-06T15:12:15.972Z,100514.86
2019-04-06T15:15:06.264Z,100521.16
2019-04-06T15:18:01.476Z,100517.31
2019-04-06T15:20:42.803Z,100521.09
2019-04-06T15:23:42.249Z,100525.30
2019-04-06T15:26:41.155Z,100521.59
2019-04-06T15:29:32.097Z,100526.77
2019-04-06T15:32:24.590Z,100525.46
2019-04-06T15:35:23.445Z,100522.75
2019-04-06T15:38:02.000Z,100520.07
2019-04-06T15:40:57.830Z,100525.55
2019-04-06T15:43:53.453Z,100527.07
2019-04-06T15:46:44.159Z,100524.28
2019-04-06T15:49:29.113Z,100522.87
2019-04-06T15:52:33.309Z,100521.06
2019-04-06T15:55:23.172Z,100517.34
2019-04-06T15:57:58.140Z,100516.71
2019-04-06T16:00:57.412Z,100514.18
2019-04-06T16:03:41.312Z,100518.58
2019-04-06T16:06:43.057Z,100512.95
2019-04-06T16:09:42.384Z,100515.09
2019-04-06T16:12:39.012Z,100515.97
2019-04-06T16:15:29.678Z,100511.25
2019-04-06T16:18:12.398Z,100511.73
2019-04-06T16:21:01.568Z,100509.23
2019-04-06T16:24:03.060Z,100503.33
2019-04-06T16:26:49.459Z,100499.22
2019-04-06T16:29:26.995Z,100506.05
2019-04-06T16:32:32.825Z,100505.92
2019-04-06T16:35:21.230Z,100503.61
2019-04-06T16:38:11.272Z,100502.06
2019-04-06T16:40:54.521Z,100504.09
2019-04-06T16:43:50.527Z,100504.48
2019-04-06T16:46:43.614Z,100510.95
2019-04-06T16:49:45.378Z,100500.90
2019-04-06T16:52:33.833Z,100506.45
2019-04-06T16:55:36.304Z,100504.20
2019-04-06T16:58:37.960Z,100505.33
2019-04-06T17:01:37.688Z,100499.47
2019-04-06T17:04:45.151Z,100504.06
2019-04-06T17:07:35.178Z,100505.52
2019-04-06T17:10:31.352Z,100507.84
2019-04-06T17:13:33.453Z,100506.25
2019-04-06T17:16:29.024Z,100498.98
2019-04-06T17:19:33.956Z,100499.83
2019-04-06T17:22:25.427Z,100503.79
2019-04-06T17:25:17.273Z,100509.05
2019-04-06T17:27:55.975Z,100506.37
2019-04-06T17:30:37.179Z,100508.02
2019-04-06T17:33:35.008Z,100508.36
2019-04-06T17:36:22.421Z,100503.84
2019-04-06T17:39:25.251Z,100497.58
2019-04-06T17:42:08.702Z,100495.69
2019-04-06T17:44:58.815Z,100496.83
2019-04-06T17:47:52.408Z,100498.45
2019-04-06T17:50:38.783Z,100499.55
2019-04-06T17:53:31.830Z,100495.55
2019-04-06T17:56:37.631Z,100497.19
2019-04-06T17:59:35.164Z,100497.48
2019-04-06T18:02:23.580Z,100494.81
2019-04-06T18:05:08.306Z,100496.62
2019-04-06T18:07:57.079Z,100491.54
2019-04-06T18:10:35.595Z,100487.32
2019-04-06T18:13:34.761Z,100489.66
2019-04-06T18:16:05.506Z,100487.15
2019-04-06T18:18:36.475Z,100494.56
2019-04-06T18:21:06.892Z,100487.48
2019-04-06T18:23:37.176Z,100490.53
2019-04-06T18:26:07.421Z,100483.05
2019-04-06T18:28:40.188Z,100487.82
2019-04-06T18:31:31.318Z,100483.05
2019-04-06T18:34:01.784Z,100481.74
2019-04-06T18:37:12.503Z,100483.05
2019-04-06T18:39:42.850Z,100478.33
2019-04-06T18:42:13.572Z,100493.10
2019-04-06T18:44:44.363Z,100485.28
2019-04-06T18:47:18.939Z,100483.98
2019-04-06T18:49:49.972Z,100487.61
2019-04-06T18:52:23.543Z,100483.89
2019-04-06T18:54:54.645Z,100483.62
2019-04-06T18:57:25.387Z,100483.24
2019-04-06T18:59:55.953Z,100481.66
2019-04-06T19:02:27.064Z,100474.84
2019-04-06T19:04:57.474Z,100475.89
2019-04-06T19:07:28.368Z,100475.70
2019-04-06T19:10:00.360Z,100469.39
2019-04-06T19:12:31.440Z,100471.39
2019-04-06T19:15:02.926Z,100472.39
2019-04-06T19:17:34.112Z,100469.98
2019-04-06T19:20:05.805Z,100477.96
2019-04-06T19:22:37.668Z,100472.08
2019-04-06T19:25:08.443Z,100474.86
2019-04-06T19:27:40.673Z,100467.16
2019-04-06T19:30:11.597Z,100459.82
2019-04-06T19:32:42.664Z,100457.91
2019-04-06T19:35:13.324Z,100453.48
2019-04-06T19:37:44.333Z,100456.60
2019-04-06T19:40:17.776Z,100459.25
2019-04-06T19:42:48.201Z,100459.33
2019-04-06T19:45:19.562Z,100461.58
2019-04-06T19:47:49.791Z,100458.59
2019-04-06T19:50:20.991Z,100460.33
2019-04-06T19:52:51.718Z,100462.98
2019-04-06T19:55:23.027Z,100464.72
2019-04-06T19:57:53.434Z,100459.13
2019-04-06T20:00:24.588Z,100459.59
2019-04-06T20:02:55.376Z,100457.98
2019-04-06T20:05:26.345Z,100454.91
2019-04-06T20:07:56.815Z,100450.98
2019-04-06T20:10:28.511Z,100456.25
2019-04-06T20:13:01.880Z,100444.58
2019-04-06T20:15:33.540Z,100443.86
2019-04-06T20:18:05.417Z,100453.08
2019-04-06T20:20:36.623Z,100447.56
2019-04-06T20:23:07.298Z,100446.27
2019-04-06T20:25:38.428Z,100443.60
2019-04-06T20:28:09.572Z,100447.81
2019-04-06T20:30:40.730Z,100442.91
2019-04-06T20:33:11.988Z,100445.41
2019-04-06T20:35:42.699Z,100443.98
2019-04-06T20:38:13.913Z,100443.94
2019-04-06T20:40:47.349Z,100442.63
2019-04-06T20:43:18.533Z,100435.37
2019-04-06T20:45:49.039Z,100432.84
2019-04-06T20:48:20.539Z,100435.47
2019-04-06T20:50:51.250Z,100432.05
2019-04-06T20:53:22.118Z,100428.25
2019-04-06T20:55:54.198Z,100430.91
2019-04-06T20:58:25.059Z,100426.16
2019-04-06T21:00:55.773Z,100427.09
2019-04-06T21:03:26.569Z,100424.64
2019-04-06T21:05:57.128Z,100419.15
2019-04-06T21:08:27.513Z,100410.73
2019-04-06T21:10:58.046Z,100411.25
2019-04-06T21:13:28.786Z,100411.33
2019-04-06T21:15:59.812Z,100410.05
2019-04-06T21:18:31.014Z,100406.22
2019-04-06T21:21:02.081Z,100408.94
2019-04-06T21:23:32.989Z,100406.87
2019-04-06T21:26:03.726Z,100409.95
2019-04-06T21:28:34.310Z,100406.61
2019-04-06T21:31:05.078Z,100404.88
2019-04-06T21:33:35.649Z,100404.48
2019-04-06T21:36:06.968Z,100405.33
2019-04-06T21:38:37.704Z,100403.98
2019-04-06T21:41:08.615Z,100403.42
2019-04-06T21:43:39.376Z,100398.63
2019-04-06T21:46:10.471Z,100401.23
2019-04-06T21:48:41.345Z,100404.68
2019-04-06T21:51:11.705Z,100393.88
2019-04-06T21:53:42.724Z,100397.81
2019-04-06T21:56:13.211Z,100391.39
2019-04-06T21:58:43.401Z,100395.38
2019-04-06T22:01:14.861Z,100390.23
2019-04-06T22:02:55.026Z,100390.16
2019-04-06T22:03:45.465Z,100393.72
2019-04-06T22:04:36.268Z,100389.37
2019-04-06T22:05:27.250Z,100388.08
2019-04-06T22:06:17.599Z,100384.23
2019-04-06T22:07:08.750Z,100390.27
2019-04-06T22:07:59.668Z,100387.27
2019-04-06T22:08:52.201Z,100384.26
2019-04-06T22:09:46.776Z,100379.47
2019-04-06T22:10:39.540Z,100384.66
2019-04-06T22:11:29.985Z,100383.77
2019-04-06T22:12:20.663Z,100384.62
2019-04-06T22:13:11.587Z,100379.84
2019-04-06T22:14:01.876Z,100382.03
2019-04-06T22:14:52.162Z,100381.56
2019-04-06T22:15:42.646Z,100383.33
2019-04-06T22:16:33.658Z,100380.29
2019-04-06T22:17:24.427Z,100379.86
2019-04-06T22:18:15.150Z,100382.03
2019-04-06T22:19:05.796Z,100378.13
2019-04-06T22:19:56.583Z,100375.95
2019-04-06T22:20:47.071Z,100377.27
2019-04-06T22:21:37.408Z,100378.13
2019-04-06T22:22:29.050Z,100383.31
2019-04-06T22:23:22.651Z,100377.67
2019-04-06T22:24:14.871Z,100375.46
2019-04-06T22:25:05.914Z,100378.04
2019-04-06T22:25:56.879Z,100372.41
2019-04-06T22:26:47.194Z,100377.59
2019-04-06T22:27:37.435Z,100375.40
2019-04-06T22:28:27.962Z,100373.23
2019-04-06T22:29:18.529Z,100374.53
2019-04-06T22:30:10.239Z,100377.10
2019-04-06T22:31:01.798Z,100377.56
2019-04-06T22:31:51.785Z,100374.53
2019-04-06T22:32:41.947Z,100375.38
2019-04-06T22:33:31.985Z,100374.51
2019-04-06T22:34:34.014Z,100374.08
2019-04-06T22:35:16.061Z,100377.97
2019-04-06T22:36:06.660Z,100372.78
2019-04-06T22:36:58.235Z,100369.70
2019-04-06T22:37:48.805Z,100374.03
2019-04-06T22:38:40.088Z,100375.28
2019-04-06T22:39:32.667Z,100374.42
2019-04-06T22:40:23.435Z,100376.99
2019-04-06T22:41:14.028Z,100365.25
2019-04-06T22:42:04.826Z,100367.42
2019-04-06T22:42:55.403Z,100370.02
2019-04-06T22:43:45.774Z,100367.84
2019-04-06T22:44:36.068Z,100367.42
2019-04-06T22:45:26.742Z,100360.95
2019-04-06T22:46:17.096Z,100362.66
2019-04-06T22:47:08.071Z,100366.13
2019-04-06T22:47:58.749Z,100362.25
2019-04-06T22:48:49.530Z,100358.38
2019-04-06T22:49:40.498Z,100357.97
2019-04-06T22:50:31.449Z,100361.86
2019-04-06T22:51:21.919Z,100358.45
2019-04-06T22:52:12.894Z,100360.18
2019-04-06T22:53:04.013Z,100362.37
2019-04-06T22:53:54.612Z,100352.43
2019-04-06T22:55:41.618Z,100352.81
2019-04-06T22:56:32.650Z,100353.34
2019-04-06T22:59:44.780Z,100347.57
2019-04-06T23:00:54.528Z,100350.97
2019-04-06T23:01:44.926Z,100348.09
2019-04-06T23:02:47.845Z,100347.74
2019-04-06T23:03:56.346Z,100351.23
2019-04-06T23:05:08.700Z,100344.36
2019-04-06T23:06:02.045Z,100344.38
2019-04-06T23:06:58.673Z,100343.91
2019-04-06T23:07:49.716Z,100341.75
2019-04-06T23:09:38.527Z,100342.45
2019-04-06T23:10:30.462Z,100342.06
2019-04-06T23:11:20.828Z,100341.61
2019-04-06T23:12:11.007Z,100342.02
2019-04-06T23:13:01.711Z,100336.80
2019-04-06T23:13:51.647Z,100343.70
2019-04-06T23:14:42.084Z,100341.48
2019-04-06T23:15:32.614Z,100335.84
2019-04-06T23:16:23.075Z,100335.36
2019-04-06T23:17:13.408Z,100336.20
2019-04-06T23:18:03.617Z,100340.48
2019-04-06T23:18:53.785Z,100335.27
2019-04-06T23:19:44.238Z,100335.24
2019-04-06T23:20:34.623Z,100334.75
2019-04-06T23:21:25.050Z,100335.14
2019-04-06T23:22:15.842Z,100332.08
2019-04-06T23:23:05.743Z,100335.09
2019-04-06T23:23:55.719Z,100331.57
2019-04-06T23:26:32.920Z,100333.16
2019-04-06T23:28:59.624Z,100330.83
2019-04-06T23:29:34.755Z,100334.38
2019-04-06T23:30:10.437Z,100334.32
2019-04-06T23:30:46.566Z,100335.55
2019-04-06T23:31:24.389Z,100332.86
2019-04-06T23:50:56.129Z,100325.78
2019-04-06T23:53:28.175Z,100322.55
2019-04-06T23:56:00.111Z,100323.61
2019-04-06T23:58:32.549Z,100320.30
